createdAt,value
2022-10-08T00:01:11.983Z,986.9
2022-10-08T00:03:13.566Z,986.8
2022-10-08T00:05:14.562Z,986.7
2022-10-08T00:07:16.041Z,986.7
2022-10-08T00:09:17.232Z,986.8
2022-10-08T00:11:18.316Z,986.8
2022-10-08T00:13:19.268Z,986.8
2022-10-08T00:15:20.633Z,986.9
2022-10-08T00:17:22.053Z,986.8
2022-10-08T00:19:24.014Z,986.9
2022-10-08T00:21:25.144Z,987
2022-10-08T00:23:26.461Z,987
2022-10-08T00:25:27.608Z,986.9
2022-10-08T00:27:28.537Z,986.8
2022-10-08T00:29:30.235Z,986.8
2022-10-08T00:31:31.363Z,986.8
2022-10-08T00:33:32.232Z,986.8
2022-10-08T00:35:33.415Z,986.8
2022-10-08T00:37:34.588Z,986.8
2022-10-08T00:39:35.920Z,986.8
2022-10-08T00:41:37.313Z,986.8
2022-10-08T00:43:39.158Z,986.7
2022-10-08T00:45:40.685Z,986.6
2022-10-08T00:47:41.558Z,986.7
2022-10-08T00:49:43.011Z,986.7
2022-10-08T00:51:43.988Z,986.6
2022-10-08T00:53:45.715Z,986.6
2022-10-08T00:55:47.550Z,986.6
2022-10-08T00:57:49.227Z,986.6
2022-10-08T00:59:51.029Z,986.6
2022-10-08T01:01:52.391Z,986.6
2022-10-08T01:03:53.812Z,986.6
2022-10-08T01:05:55.534Z,986.6
2022-10-08T01:07:56.487Z,986.7
2022-10-08T01:09:57.446Z,986.6
2022-10-08T01:11:58.487Z,986.6
2022-10-08T01:14:00.330Z,986.6
2022-10-08T01:16:01.697Z,986.6
2022-10-08T01:18:02.657Z,986.5
2022-10-08T01:20:03.987Z,986.5
2022-10-08T01:22:05.824Z,986.5
2022-10-08T01:24:07.252Z,986.5
2022-10-08T01:26:08.600Z,986.5
2022-10-08T01:30:11.604Z,986.4
2022-10-08T01:32:13.349Z,986.4
2022-10-08T01:34:15.098Z,986.4
2022-10-08T01:36:16.005Z,986.4
2022-10-08T01:38:17.074Z,986.4
2022-10-08T01:40:18.635Z,986.5
2022-10-08T01:42:20.333Z,986.5
2022-10-08T01:44:21.356Z,986.4
2022-10-08T01:46:22.824Z,986.4
2022-10-08T01:48:24.076Z,986.4
2022-10-08T01:50:25.792Z,986.3
2022-10-08T01:52:27.550Z,986.3
2022-10-08T01:54:29.207Z,986.3
2022-10-08T01:56:30.191Z,986.4
2022-10-08T01:58:31.287Z,986.4
2022-10-08T02:00:32.392Z,986.3
2022-10-08T02:02:33.941Z,986.2
2022-10-08T02:04:35.221Z,986.3
2022-10-08T02:06:36.942Z,986.3
2022-10-08T02:08:38.192Z,986.2
2022-10-08T02:10:39.130Z,986.3
2022-10-08T02:12:40.770Z,986.4
2022-10-08T02:14:42.373Z,986.3
2022-10-08T02:16:44.299Z,986.4
2022-10-08T02:18:45.275Z,986.4
2022-10-08T02:20:47.042Z,986.4
2022-10-08T02:22:49.046Z,986.3
2022-10-08T02:24:50.674Z,986.3
2022-10-08T02:26:51.906Z,986.4
2022-10-08T02:28:53.166Z,986.4
2022-10-08T02:30:54.888Z,986.4
2022-10-08T02:32:56.171Z,986.3
2022-10-08T02:34:57.260Z,986.4
2022-10-08T02:36:58.478Z,986.4
2022-10-08T02:38:59.438Z,986.3
2022-10-08T02:41:00.645Z,986.3
2022-10-08T02:43:01.871Z,986.3
2022-10-08T02:45:02.865Z,986.4
2022-10-08T02:47:04.605Z,986.4
2022-10-08T02:49:06.114Z,986.4
2022-10-08T02:51:07.204Z,986.4
2022-10-08T02:53:09.024Z,986.4
2022-10-08T02:55:10.641Z,986.4
2022-10-08T02:57:12.109Z,986.4
2022-10-08T02:59:13.321Z,986.4
2022-10-08T03:01:14.727Z,986.5
2022-10-08T03:03:15.806Z,986.4
2022-10-08T03:05:16.767Z,986.4
2022-10-08T03:07:18.138Z,986.4
2022-10-08T03:09:19.706Z,986.4
2022-10-08T03:11:20.809Z,986.4
2022-10-08T03:13:22.080Z,986.4
2022-10-08T03:15:23.190Z,986.5
2022-10-08T03:17:25.124Z,986.4
2022-10-08T03:19:26.526Z,986.5
2022-10-08T03:21:28.261Z,986.4
2022-10-08T03:23:29.638Z,986.5
2022-10-08T03:25:31.349Z,986.4
2022-10-08T03:27:32.989Z,986.5
2022-10-08T03:29:34.575Z,986.4
2022-10-08T03:31:36.370Z,986.5
2022-10-08T03:33:37.607Z,986.5
2022-10-08T03:35:38.502Z,986.5
2022-10-08T03:37:40.209Z,986.5
2022-10-08T03:39:41.896Z,986.6
2022-10-08T03:43:44.554Z,986.5
2022-10-08T03:45:46.039Z,986.5
2022-10-08T03:47:47.464Z,986.5
2022-10-08T03:49:48.733Z,986.6
2022-10-08T03:53:51.811Z,986.6
2022-10-08T03:55:52.755Z,986.6
2022-10-08T03:59:56.039Z,986.7
2022-10-08T04:01:57.312Z,986.7
2022-10-08T04:03:58.407Z,986.8
2022-10-08T04:05:59.981Z,986.8
2022-10-08T04:08:01.173Z,986.8
2022-10-08T04:10:02.209Z,986.7
2022-10-08T04:12:03.584Z,986.7
2022-10-08T04:14:04.781Z,986.8
2022-10-08T04:16:05.751Z,986.8
2022-10-08T04:18:07.462Z,986.8
2022-10-08T04:20:09.103Z,986.7
2022-10-08T04:22:10.061Z,986.8
2022-10-08T04:24:11.419Z,986.8
2022-10-08T04:26:13.200Z,986.8
2022-10-08T04:28:14.163Z,986.9
2022-10-08T04:30:15.340Z,986.9
2022-10-08T04:32:16.761Z,986.9
2022-10-08T04:34:17.725Z,986.9
2022-10-08T04:36:19.250Z,986.8
2022-10-08T04:38:20.175Z,986.7
2022-10-08T04:40:21.555Z,986.9
2022-10-08T04:43:06.559Z,987
2022-10-08T04:45:07.659Z,986.9
2022-10-08T04:47:08.836Z,987
2022-10-08T04:49:10.498Z,986.9
2022-10-08T04:51:12.262Z,987
2022-10-08T04:53:13.493Z,986.9
2022-10-08T04:55:15.261Z,987
2022-10-08T04:57:16.929Z,987
2022-10-08T04:59:17.858Z,987
2022-10-08T05:01:19.658Z,987.1
2022-10-08T05:03:20.989Z,987
2022-10-08T05:05:22.035Z,987.1
2022-10-08T05:07:23.464Z,987.2
2022-10-08T05:09:24.429Z,987.1
2022-10-08T05:11:25.520Z,987
2022-10-08T05:13:27.064Z,987
2022-10-08T05:15:28.924Z,987
2022-10-08T05:17:30.644Z,987
2022-10-08T05:19:31.634Z,987.1
2022-10-08T05:21:33.065Z,987.1
2022-10-08T05:23:34.153Z,987.2
2022-10-08T05:25:35.157Z,987.1
2022-10-08T05:27:36.810Z,987.1
2022-10-08T05:29:38.438Z,987.2
2022-10-08T05:31:40.255Z,987
2022-10-08T05:33:42.011Z,987.1
2022-10-08T05:35:43.460Z,987.2
2022-10-08T05:37:45.229Z,987.2
2022-10-08T05:39:46.828Z,987.2
2022-10-08T05:41:47.741Z,987.2
2022-10-08T05:43:48.840Z,987.3
2022-10-08T05:45:50.485Z,987.2
2022-10-08T05:47:51.510Z,987.3
2022-10-08T05:49:52.822Z,987.2
2022-10-08T05:51:53.983Z,987.4
2022-10-08T05:53:55.292Z,987.3
2022-10-08T05:55:56.285Z,987.3
2022-10-08T05:57:58.068Z,987.4
2022-10-08T05:59:59.452Z,987.4
2022-10-08T06:02:01.163Z,987.4
2022-10-08T06:04:08.003Z,987.3
2022-10-08T06:06:03.891Z,987.4
2022-10-08T06:08:05.461Z,987.5
2022-10-08T06:10:06.836Z,987.5
2022-10-08T06:12:08.199Z,987.5
2022-10-08T06:14:10.063Z,987.6
2022-10-08T06:16:11.597Z,987.5
2022-10-08T06:18:12.599Z,987.5
2022-10-08T06:20:13.854Z,987.6
2022-10-08T06:22:14.825Z,987.6
2022-10-08T06:24:15.818Z,987.6
2022-10-08T06:26:16.818Z,987.7
2022-10-08T06:28:18.549Z,987.7
2022-10-08T06:30:19.863Z,987.7
2022-10-08T06:34:22.759Z,987.8
2022-10-08T06:36:23.741Z,987.8
2022-10-08T06:38:25.378Z,987.9
2022-10-08T06:40:27.104Z,987.9
2022-10-08T06:42:28.072Z,987.9
2022-10-08T06:44:29.073Z,987.9
2022-10-08T06:46:30.596Z,987.9
2022-10-08T06:48:31.542Z,987.9
2022-10-08T06:50:33.339Z,987.9
2022-10-08T06:52:34.898Z,988
2022-10-08T06:54:35.920Z,988
2022-10-08T06:56:37.514Z,988
2022-10-08T06:58:39.186Z,988
2022-10-08T07:00:40.797Z,988.1
2022-10-08T07:02:42.273Z,988.2
2022-10-08T07:04:43.393Z,988.1
2022-10-08T07:06:45.231Z,988.1
2022-10-08T07:10:48.257Z,988.3
2022-10-08T07:12:49.631Z,988.3
2022-10-08T07:14:50.466Z,988.3
2022-10-08T07:16:51.698Z,988.3
2022-10-08T07:18:53.415Z,988.3
2022-10-08T07:20:55.014Z,988.4
2022-10-08T07:22:56.883Z,988.4
2022-10-08T07:24:58.233Z,988.5
2022-10-08T07:26:59.760Z,988.3
2022-10-08T07:29:01.666Z,988.4
2022-10-08T07:31:02.961Z,988.5
2022-10-08T07:33:04.149Z,988.6
2022-10-08T07:35:05.331Z,988.6
2022-10-08T07:37:06.946Z,988.6
2022-10-08T07:39:08.327Z,988.6
2022-10-08T07:41:09.384Z,988.6
2022-10-08T07:43:10.631Z,988.5
2022-10-08T07:45:12.351Z,988.5
2022-10-08T07:47:14.166Z,988.5
2022-10-08T07:49:15.689Z,988.5
2022-10-08T07:51:16.675Z,988.6
2022-10-08T07:53:18.199Z,988.5
2022-10-08T07:55:19.599Z,988.5
2022-10-08T07:57:20.631Z,988.5
2022-10-08T07:59:22.152Z,988.6
2022-10-08T08:01:23.525Z,988.5
2022-10-08T08:03:25.201Z,988.6
2022-10-08T08:05:26.274Z,988.7
2022-10-08T08:07:27.102Z,988.6
2022-10-08T08:09:28.416Z,988.6
2022-10-08T08:11:29.465Z,988.7
2022-10-08T08:13:35.896Z,988.7
2022-10-08T08:15:32.265Z,988.7
2022-10-08T08:17:33.330Z,988.7
2022-10-08T08:19:34.176Z,988.7
2022-10-08T08:21:35.349Z,988.7
2022-10-08T08:23:36.466Z,988.7
2022-10-08T08:25:37.986Z,988.7
2022-10-08T08:27:38.976Z,988.7
2022-10-08T08:29:40.052Z,988.8
2022-10-08T08:31:41.081Z,988.7
2022-10-08T08:33:42.620Z,988.8
2022-10-08T08:35:44.009Z,988.8
2022-10-08T08:37:45.840Z,988.8
2022-10-08T08:39:47.564Z,988.9
2022-10-08T08:41:49.056Z,988.9
2022-10-08T08:43:50.209Z,988.8
2022-10-08T08:45:51.580Z,988.9
2022-10-08T08:47:52.410Z,988.9
2022-10-08T08:49:54.161Z,988.8
2022-10-08T08:51:55.280Z,988.9
2022-10-08T08:53:56.338Z,989
2022-10-08T08:55:57.338Z,989
2022-10-08T08:57:58.253Z,989
2022-10-08T08:59:59.429Z,989
2022-10-08T09:02:01.149Z,989
2022-10-08T09:04:02.719Z,989
2022-10-08T09:06:04.434Z,989.1
2022-10-08T09:12:08.402Z,989.1
2022-10-08T09:14:10.001Z,989.1
2022-10-08T09:16:11.217Z,989.1
2022-10-08T09:18:12.286Z,989.1
2022-10-08T09:20:13.647Z,989.1
2022-10-08T09:22:14.643Z,989.1
2022-10-08T09:24:15.638Z,989.2
2022-10-08T09:26:16.526Z,989
2022-10-08T09:28:18.372Z,989.2
2022-10-08T09:30:19.876Z,989.1
2022-10-08T09:32:20.984Z,989.1
2022-10-08T09:34:22.744Z,989.2
2022-10-08T09:36:23.993Z,989.2
2022-10-08T09:38:25.194Z,989.2
2022-10-08T09:40:26.287Z,989.3
2022-10-08T09:42:27.489Z,989.3
2022-10-08T09:44:28.281Z,989.2
2022-10-08T09:46:29.813Z,989.4
2022-10-08T09:48:31.215Z,989.3
2022-10-08T09:50:32.327Z,989.3
2022-10-08T09:54:35.402Z,989.4
2022-10-08T09:56:36.419Z,989.3
2022-10-08T09:58:38.178Z,989.4
2022-10-08T10:00:39.378Z,989.4
2022-10-08T10:04:42.412Z,989.4
2022-10-08T10:06:43.312Z,989.3
2022-10-08T10:08:44.597Z,989.4
2022-10-08T10:10:46.194Z,989.4
2022-10-08T10:14:49.553Z,989.4
2022-10-08T10:16:50.840Z,989.4
2022-10-08T10:18:52.028Z,989.4
2022-10-08T10:20:53.411Z,989.3
2022-10-08T10:22:54.646Z,989.4
2022-10-08T10:24:55.561Z,989.3
2022-10-08T10:26:57.312Z,989.3
2022-10-08T10:28:58.977Z,989.3
2022-10-08T10:31:00.792Z,989.3
2022-10-08T10:33:02.050Z,989.2
2022-10-08T10:35:03.545Z,989.3
2022-10-08T10:37:04.958Z,989.2
2022-10-08T10:39:06.171Z,989.2
2022-10-08T10:41:07.360Z,989.3
2022-10-08T10:43:08.822Z,989.3
2022-10-08T10:45:10.509Z,989.2
2022-10-08T10:47:11.387Z,989.3
2022-10-08T10:49:12.396Z,989.2
2022-10-08T10:51:13.462Z,989.3
2022-10-08T10:53:14.688Z,989.3
2022-10-08T10:55:15.634Z,989.2
2022-10-08T10:57:16.910Z,989.3
2022-10-08T10:59:18.542Z,989.3
2022-10-08T11:03:21.827Z,989.4
2022-10-08T11:05:22.947Z,989.3
2022-10-08T11:09:25.922Z,989.3
2022-10-08T11:11:32.332Z,989.3
2022-10-08T11:13:28.946Z,989.3
2022-10-08T11:15:30.177Z,989.4
2022-10-08T11:17:31.351Z,989.4
2022-10-08T11:19:32.341Z,989.4
2022-10-08T11:21:33.648Z,989.4
2022-10-08T11:23:35.092Z,989.3
2022-10-08T11:25:49.933Z,989.3
2022-10-08T11:26:22.966Z,989.3
2022-10-08T11:28:21.617Z,989.3
2022-10-08T11:30:23.388Z,989.3
2022-10-08T11:32:24.678Z,989.3
2022-10-08T11:34:26.093Z,989.4
2022-10-08T11:36:30.592Z,989.3
2022-10-08T11:38:28.953Z,989.3
2022-10-08T11:40:29.901Z,989.3
2022-10-08T11:42:30.959Z,989.2
2022-10-08T11:44:32.306Z,989.2
2022-10-08T11:46:33.423Z,989.3
2022-10-08T11:48:35.023Z,989.3
2022-10-08T11:50:35.938Z,989.3
2022-10-08T11:52:37.149Z,989.2
2022-10-08T11:54:38.499Z,989.3
2022-10-08T11:56:39.370Z,989.3
2022-10-08T11:58:40.530Z,989.3
2022-10-08T12:00:41.867Z,989.2
2022-10-08T12:02:43.002Z,989.2
2022-10-08T12:04:44.040Z,989.2
2022-10-08T12:06:45.187Z,989.3
2022-10-08T12:08:46.778Z,989.3
2022-10-08T12:10:48.013Z,989.2
2022-10-08T12:12:49.649Z,989.2
2022-10-08T12:14:50.738Z,989.3
2022-10-08T12:16:51.852Z,989.2
2022-10-08T12:18:53.456Z,989.2
2022-10-08T12:20:55.300Z,989.3
2022-10-08T12:22:56.144Z,989.3
2022-10-08T12:24:57.813Z,989.2
2022-10-08T12:29:00.151Z,989.3
2022-10-08T12:31:01.936Z,989.3
2022-10-08T12:33:03.362Z,989.3
2022-10-08T12:35:05.084Z,989.2
2022-10-08T12:37:06.438Z,989.3
2022-10-08T12:39:08.006Z,989.3
2022-10-08T12:41:09.079Z,989.3
2022-10-08T12:43:10.324Z,989.4
2022-10-08T12:45:11.440Z,989.4
2022-10-08T12:47:12.464Z,989.3
2022-10-08T12:49:13.379Z,989.4
2022-10-08T12:51:14.291Z,989.4
2022-10-08T12:53:15.604Z,989.4
2022-10-08T12:55:17.022Z,989.3
2022-10-08T12:57:18.289Z,989.4
2022-10-08T12:59:19.494Z,989.4
2022-10-08T13:01:20.570Z,989.3
2022-10-08T13:03:21.367Z,989.3
2022-10-08T13:05:22.672Z,989.3
2022-10-08T13:07:24.519Z,989.4
2022-10-08T13:09:26.177Z,989.4
2022-10-08T13:11:27.030Z,989.3
2022-10-08T13:13:28.445Z,989.3
2022-10-08T13:15:29.719Z,989.4
2022-10-08T13:17:30.694Z,989.4
2022-10-08T13:19:31.678Z,989.4
2022-10-08T13:21:33.485Z,989.5
2022-10-08T13:23:34.914Z,989.4
2022-10-08T13:25:36.306Z,989.4
2022-10-08T13:27:37.934Z,989.5
2022-10-08T13:29:39.460Z,989.4
2022-10-08T13:31:40.979Z,989.5
2022-10-08T13:33:41.938Z,989.4
2022-10-08T13:35:43.596Z,989.5
2022-10-08T13:37:44.878Z,989.4
2022-10-08T13:39:45.773Z,989.4
2022-10-08T13:41:50.340Z,989.4
2022-10-08T13:43:48.565Z,989.5
2022-10-08T13:45:49.459Z,989.4
2022-10-08T13:47:51.318Z,989.5
2022-10-08T13:49:52.581Z,989.5
2022-10-08T13:53:57.090Z,989.4
2022-10-08T13:55:57.462Z,989.5
2022-10-08T13:57:58.487Z,989.6
2022-10-08T13:59:59.979Z,989.6
2022-10-08T14:04:02.386Z,989.6
2022-10-08T14:06:03.805Z,989.7
2022-10-08T14:10:05.693Z,989.7
2022-10-08T14:12:07.017Z,989.7
2022-10-08T14:14:08.144Z,989.7
2022-10-08T14:16:09.932Z,989.7
2022-10-08T14:18:11.526Z,989.7
2022-10-08T14:20:12.982Z,989.7
2022-10-08T14:22:14.399Z,989.6
2022-10-08T14:24:15.702Z,989.6
2022-10-08T14:26:17.243Z,989.8
2022-10-08T14:28:18.181Z,989.7
2022-10-08T14:30:19.883Z,989.7
2022-10-08T14:32:20.785Z,989.7
2022-10-08T14:34:21.706Z,989.8
2022-10-08T14:36:23.473Z,989.7
2022-10-08T14:38:25.073Z,989.7
2022-10-08T14:40:26.303Z,989.6
2022-10-08T14:42:27.721Z,989.8
2022-10-08T14:44:29.097Z,989.7
2022-10-08T14:46:29.952Z,989.8
2022-10-08T14:48:30.804Z,989.7
2022-10-08T14:50:32.391Z,989.7
2022-10-08T14:52:33.864Z,989.7
2022-10-08T14:54:35.055Z,989.8
2022-10-08T14:56:36.288Z,989.8
2022-10-08T14:58:37.359Z,989.7
2022-10-08T15:00:38.256Z,989.7
2022-10-08T15:02:39.460Z,989.8
2022-10-08T15:04:40.766Z,989.8
2022-10-08T15:06:42.319Z,989.8
2022-10-08T15:08:44.058Z,989.8
2022-10-08T15:10:44.984Z,989.8
2022-10-08T15:12:46.854Z,989.9
2022-10-08T15:14:47.528Z,989.9
2022-10-08T15:16:49.147Z,989.9
2022-10-08T15:18:50.150Z,989.8
2022-10-08T15:20:52.679Z,989.9
2022-10-08T15:22:53.825Z,989.8
2022-10-08T15:24:55.262Z,989.9
2022-10-08T15:26:56.276Z,989.9
2022-10-08T15:28:57.746Z,989.9
2022-10-08T15:30:59.164Z,989.9
2022-10-08T15:33:00.429Z,989.8
2022-10-08T15:35:01.462Z,990
2022-10-08T15:37:02.577Z,989.9
2022-10-08T15:39:04.109Z,989.9
2022-10-08T15:41:05.443Z,990.1
2022-10-08T15:45:08.782Z,990
2022-10-08T15:47:09.902Z,990
2022-10-08T15:51:11.841Z,990
2022-10-08T15:53:13.142Z,990
2022-10-08T15:55:14.463Z,990.1
2022-10-08T15:57:15.992Z,990.1
2022-10-08T15:59:17.150Z,990.1
2022-10-08T16:01:18.112Z,990.1
2022-10-08T16:03:19.881Z,990.1
2022-10-08T16:05:20.869Z,990.1
2022-10-08T16:07:22.018Z,990.1
2022-10-08T16:09:23.346Z,990.2
2022-10-08T16:11:25.004Z,990.2
2022-10-08T16:13:26.622Z,990.2
2022-10-08T16:15:27.744Z,990.3
2022-10-08T16:17:28.873Z,990.2
2022-10-08T16:19:30.408Z,990.3
2022-10-08T16:21:32.080Z,990.3
2022-10-08T16:23:33.374Z,990.3
2022-10-08T16:25:34.467Z,990.3
2022-10-08T16:27:36.167Z,990.4
2022-10-08T16:29:37.247Z,990.4
2022-10-08T16:31:39.078Z,990.4
2022-10-08T16:33:40.209Z,990.4
2022-10-08T16:35:41.489Z,990.5
2022-10-08T16:37:42.448Z,990.5
2022-10-08T16:39:43.853Z,990.5
2022-10-08T16:41:44.888Z,990.6
2022-10-08T16:43:46.470Z,990.6
2022-10-08T16:45:47.860Z,990.6
2022-10-08T16:49:49.882Z,990.6
2022-10-08T16:51:51.512Z,990.7
2022-10-08T16:53:53.425Z,990.7
2022-10-08T16:55:54.346Z,990.8
2022-10-08T16:57:55.466Z,990.8
2022-10-08T16:59:57.185Z,990.9
2022-10-08T17:01:58.455Z,990.9
2022-10-08T17:03:59.298Z,990.9
2022-10-08T17:06:01.115Z,990.9
2022-10-08T17:08:02.458Z,990.9
2022-10-08T17:10:04.087Z,991
2022-10-08T17:12:05.533Z,991.1
2022-10-08T17:16:08.012Z,991.1
2022-10-08T17:18:09.070Z,991.1
2022-10-08T17:20:10.688Z,991.1
2022-10-08T17:22:11.734Z,991.2
2022-10-08T17:24:12.898Z,991.2
2022-10-08T17:26:14.785Z,991.3
2022-10-08T17:28:16.553Z,991.3
2022-10-08T17:30:18.270Z,991.3
2022-10-08T17:32:20.047Z,991.3
2022-10-08T17:36:23.135Z,991.3
2022-10-08T17:38:24.737Z,991.4
2022-10-08T17:40:26.586Z,991.4
2022-10-08T17:42:28.040Z,991.5
2022-10-08T17:44:29.197Z,991.5
2022-10-08T17:46:30.185Z,991.5
2022-10-08T17:48:31.322Z,991.5
2022-10-08T17:50:32.711Z,991.7
2022-10-08T17:52:33.725Z,991.6
2022-10-08T17:54:35.618Z,991.7
2022-10-08T17:56:37.046Z,991.6
2022-10-08T17:58:38.692Z,991.7
2022-10-08T18:00:40.311Z,991.7
2022-10-08T18:02:41.555Z,991.7
2022-10-08T18:04:43.332Z,991.6
2022-10-08T18:06:44.756Z,991.8
2022-10-08T18:08:46.339Z,991.8
2022-10-08T18:10:48.128Z,991.9
2022-10-08T18:12:50.023Z,991.9
2022-10-08T18:13:33.502Z,991.9
2022-10-08T18:15:34.659Z,991.9
2022-10-08T18:17:35.893Z,992
2022-10-08T18:19:37.100Z,991.9
2022-10-08T18:21:38.467Z,991.9
2022-10-08T18:23:40.187Z,991.9
2022-10-08T18:25:41.908Z,992.1
2022-10-08T18:27:43.305Z,992
2022-10-08T18:29:45.007Z,992.1
2022-10-08T18:31:46.283Z,992.1
2022-10-08T18:33:47.667Z,992.2
2022-10-08T18:35:49.456Z,992.2
2022-10-08T18:37:50.458Z,992.2
2022-10-08T18:39:51.775Z,992.3
2022-10-08T18:41:52.945Z,992.2
2022-10-08T18:43:54.353Z,992.3
2022-10-08T18:45:56.318Z,992.2
2022-10-08T18:47:57.722Z,992.4
2022-10-08T18:49:58.917Z,992.3
2022-10-08T18:52:00.677Z,992.4
2022-10-08T18:54:02.474Z,992.3
2022-10-08T18:56:04.187Z,992.3
2022-10-08T18:58:05.244Z,992.3
2022-10-08T19:00:06.647Z,992.5
2022-10-08T19:02:08.179Z,992.4
2022-10-08T19:04:09.942Z,992.5
2022-10-08T19:08:13.224Z,992.5
2022-10-08T19:10:15.205Z,992.5
2022-10-08T19:12:16.596Z,992.6
2022-10-08T19:14:17.941Z,992.6
2022-10-08T19:16:19.797Z,992.5
2022-10-08T19:18:21.050Z,992.6
2022-10-08T19:20:22.399Z,992.7
2022-10-08T19:22:24.118Z,992.7
2022-10-08T19:24:25.628Z,992.7
2022-10-08T19:26:27.295Z,992.6
2022-10-08T19:28:29.243Z,992.7
2022-10-08T19:30:32.742Z,992.7
2022-10-08T19:32:31.803Z,992.8
2022-10-08T19:34:33.436Z,992.7
2022-10-08T19:36:35.084Z,992.9
2022-10-08T19:38:36.485Z,992.8
2022-10-08T19:40:38.285Z,992.9
2022-10-08T19:42:39.970Z,992.9
2022-10-08T19:44:41.527Z,993
2022-10-08T19:46:43.147Z,993
2022-10-08T19:48:44.602Z,993
2022-10-08T19:50:46.559Z,993.1
2022-10-08T19:52:51.692Z,993.1
2022-10-08T19:54:49.290Z,993
2022-10-08T19:56:51.275Z,993.1
2022-10-08T19:58:52.489Z,993.1
2022-10-08T20:00:53.616Z,993.2
2022-10-08T20:02:54.693Z,993.2
2022-10-08T20:04:55.971Z,993.2
2022-10-08T20:06:57.265Z,993.2
2022-10-08T20:08:58.308Z,993.2
2022-10-08T20:11:00.092Z,993.3
2022-10-08T20:13:01.904Z,993.3
2022-10-08T20:15:03.206Z,993.2
2022-10-08T20:17:04.843Z,993.3
2022-10-08T20:19:06.121Z,993.4
2022-10-08T20:21:07.055Z,993.3
2022-10-08T20:23:09.004Z,993.3
2022-10-08T20:25:10.216Z,993.3
2022-10-08T20:27:11.974Z,993.3
2022-10-08T20:29:13.130Z,993.4
2022-10-08T20:31:14.318Z,993.3
2022-10-08T20:33:15.588Z,993.3
2022-10-08T20:35:17.409Z,993.4
2022-10-08T20:37:18.856Z,993.4
2022-10-08T20:39:20.211Z,993.4
2022-10-08T20:41:23.548Z,993.5
2022-10-08T20:43:23.622Z,993.4
2022-10-08T20:45:25.371Z,993.3
2022-10-08T20:47:27.326Z,993.4
2022-10-08T20:49:28.315Z,993.5
2022-10-08T20:51:30.121Z,993.5
2022-10-08T20:53:32.055Z,993.5
2022-10-08T20:55:33.641Z,993.5
2022-10-08T20:59:36.366Z,993.5
2022-10-08T21:01:38.247Z,993.7
2022-10-08T21:03:40.003Z,993.6
2022-10-08T21:05:41.198Z,993.6
2022-10-08T21:09:44.578Z,993.6
2022-10-08T21:11:45.599Z,993.6
2022-10-08T21:13:47.278Z,993.6
2022-10-08T21:15:49.292Z,993.6
2022-10-08T21:17:50.549Z,993.6
2022-10-08T21:19:52.511Z,993.6
2022-10-08T21:21:54.295Z,993.6
2022-10-08T21:23:55.827Z,993.6
2022-10-08T21:25:57.311Z,993.7
2022-10-08T21:27:58.858Z,993.7
2022-10-08T21:30:00.391Z,993.7
2022-10-08T21:32:01.706Z,993.6
2022-10-08T21:34:02.763Z,993.7
2022-10-08T21:36:03.874Z,993.7
2022-10-08T21:38:05.213Z,993.7
2022-10-08T21:40:07.180Z,993.8
2022-10-08T21:42:08.459Z,993.6
2022-10-08T21:44:09.491Z,993.8
2022-10-08T21:46:11.176Z,993.7
2022-10-08T21:48:12.595Z,993.8
2022-10-08T21:50:14.033Z,993.8
2022-10-08T21:52:15.850Z,993.8
2022-10-08T21:54:17.545Z,993.8
2022-10-08T21:58:19.995Z,993.8
2022-10-08T22:00:21.560Z,993.7
2022-10-08T22:02:23.259Z,993.7
2022-10-08T22:04:24.757Z,993.7
2022-10-08T22:06:26.280Z,993.7
2022-10-08T22:08:28.081Z,993.8
2022-10-08T22:10:29.473Z,993.7
2022-10-08T22:12:30.890Z,993.7
2022-10-08T22:14:32.089Z,993.6
2022-10-08T22:16:34.050Z,993.6
2022-10-08T22:18:35.899Z,993.7
2022-10-08T22:20:36.980Z,993.8
2022-10-08T22:22:38.756Z,993.8
2022-10-08T22:24:39.752Z,993.8
2022-10-08T22:26:41.334Z,993.8
2022-10-08T22:28:42.921Z,993.8
2022-10-08T22:30:43.927Z,993.8
2022-10-08T22:32:45.822Z,993.7
2022-10-08T22:34:47.453Z,993.8
2022-10-08T22:36:48.604Z,993.8
2022-10-08T22:38:50.290Z,993.8
2022-10-08T22:40:52.014Z,993.7
2022-10-08T22:42:53.423Z,993.7
2022-10-08T22:44:54.828Z,993.6
2022-10-08T22:46:56.192Z,993.8
2022-10-08T22:48:57.338Z,993.8
2022-10-08T22:50:58.301Z,993.8
2022-10-08T22:53:00.020Z,993.8
2022-10-08T22:57:03.735Z,993.8
2022-10-08T22:59:05.642Z,993.8
2022-10-08T23:01:07.566Z,993.9
2022-10-08T23:03:09.183Z,993.8
2022-10-08T23:05:10.222Z,993.8
2022-10-08T23:07:11.479Z,993.8
2022-10-08T23:09:12.477Z,993.8
2022-10-08T23:11:13.512Z,993.8
2022-10-08T23:13:15.251Z,993.7
2022-10-08T23:15:16.905Z,993.8
2022-10-08T23:17:18.700Z,993.8
2022-10-08T23:19:19.993Z,993.7
2022-10-08T23:21:21.054Z,993.8
2022-10-08T23:23:22.174Z,993.8
2022-10-08T23:25:23.976Z,993.7
2022-10-08T23:27:25.900Z,993.8
2022-10-08T23:29:27.559Z,993.7
2022-10-08T23:31:28.770Z,993.7
2022-10-08T23:33:29.708Z,993.8
2022-10-08T23:35:30.950Z,993.7
2022-10-08T23:37:32.185Z,993.8
2022-10-08T23:39:33.370Z,993.8
2022-10-08T23:41:35.081Z,993.7
2022-10-08T23:43:36.564Z,993.8
2022-10-08T23:45:38.087Z,993.7
2022-10-08T23:47:39.655Z,993.7
2022-10-08T23:49:41.319Z,993.8
2022-10-08T23:51:42.707Z,993.7
2022-10-08T23:53:43.888Z,993.7
2022-10-08T23:55:45.251Z,993.7
2022-10-08T23:57:46.448Z,993.7
2022-10-08T23:59:48.150Z,993.8
